createdAt,value
2023-11-19T00:02:23.612Z,1.26
2023-11-19T00:05:26.542Z,1.20
2023-11-19T00:08:29.770Z,1.18
2023-11-19T00:11:32.628Z,1.13
2023-11-19T00:14:38.496Z,1.08
2023-11-19T00:17:46.228Z,1.06
2023-11-19T00:20:49.415Z,0.93
2023-11-19T00:23:53.315Z,1.09
2023-11-19T00:26:56.195Z,1.12
2023-11-19T00:29:59.469Z,1.10
2023-11-19T00:33:02.280Z,1.18
2023-11-19T00:36:05.697Z,1.18
2023-11-19T00:39:08.929Z,1.20
2023-11-19T00:42:11.954Z,1.24
2023-11-19T00:45:15.436Z,1.21
2023-11-19T00:48:18.458Z,1.15
2023-11-19T00:51:21.603Z,1.13
2023-11-19T00:54:26.783Z,1.10
2023-11-19T00:57:29.318Z,1.14
2023-11-19T01:00:33.620Z,1.10
2023-11-19T01:03:36.687Z,1.09
2023-11-19T01:06:49.233Z,1.12
2023-11-19T01:09:52.311Z,1.14
2023-11-19T01:12:55.409Z,1.12
2023-11-19T01:15:58.083Z,1.11
2023-11-19T01:19:12.346Z,1.12
2023-11-19T01:22:20.375Z,1.23
2023-11-19T01:25:23.637Z,1.18
2023-11-19T01:28:26.429Z,1.18
2023-11-19T01:31:29.447Z,1.20
2023-11-19T01:34:32.136Z,1.28
2023-11-19T01:37:38.197Z,1.23
2023-11-19T01:40:40.886Z,1.11
2023-11-19T01:43:43.935Z,1.14
2023-11-19T01:46:49.413Z,1.15
2023-11-19T01:49:52.739Z,1.08
2023-11-19T01:52:56.147Z,1.10
2023-11-19T01:55:59.611Z,1.13
2023-11-19T01:59:03.346Z,1.10
2023-11-19T02:02:07.282Z,1.11
2023-11-19T02:05:12.452Z,1.04
2023-11-19T02:08:15.299Z,1.08
2023-11-19T02:11:18.717Z,1.05
2023-11-19T02:14:25.493Z,1.03
2023-11-19T02:17:29.463Z,0.98
2023-11-19T02:20:32.104Z,0.92
2023-11-19T02:23:35.312Z,0.93
2023-11-19T02:26:43.597Z,0.93
2023-11-19T02:29:46.588Z,0.89
2023-11-19T02:32:49.441Z,0.89
2023-11-19T02:35:52.569Z,0.90
2023-11-19T02:38:56.126Z,0.94
2023-11-19T02:41:59.342Z,0.91
2023-11-19T02:45:02.041Z,0.93
2023-11-19T02:48:07.570Z,0.95
2023-11-19T02:51:10.938Z,0.92
2023-11-19T02:54:15.702Z,0.91
2023-11-19T02:57:23.101Z,0.94
2023-11-19T03:00:33.482Z,0.92
2023-11-19T03:03:39.953Z,0.93
2023-11-19T03:06:42.872Z,0.88
2023-11-19T03:09:45.657Z,0.92
2023-11-19T03:12:48.683Z,0.92
2023-11-19T03:15:52.758Z,0.90
2023-11-19T03:18:56.247Z,0.86
2023-11-19T03:22:00.821Z,0.93
2023-11-19T03:25:04.331Z,0.95
2023-11-19T03:28:07.728Z,0.96
2023-11-19T03:31:10.828Z,0.89
2023-11-19T03:34:13.628Z,0.85
2023-11-19T03:37:18.657Z,0.89
2023-11-19T03:40:21.412Z,0.91
2023-11-19T03:43:24.537Z,0.87
2023-11-19T03:46:28.567Z,0.87
2023-11-19T03:49:31.483Z,0.71
2023-11-19T03:52:44.135Z,0.85
2023-11-19T03:55:47.745Z,0.91
2023-11-19T03:58:50.454Z,0.90
2023-11-19T04:01:54.940Z,0.84
2023-11-19T04:04:58.208Z,0.92
2023-11-19T04:08:01.488Z,0.95
2023-11-19T04:11:05.290Z,1.00
2023-11-19T04:14:08.193Z,1.01
2023-11-19T04:17:11.530Z,1.07
2023-11-19T04:20:15.750Z,1.08
2023-11-19T04:23:19.179Z,1.09
2023-11-19T04:26:21.850Z,1.03
2023-11-19T04:29:24.856Z,0.98
2023-11-19T04:32:28.319Z,0.96
2023-11-19T04:35:31.488Z,0.94
2023-11-19T04:38:34.195Z,0.81
2023-11-19T04:41:37.778Z,0.85
2023-11-19T04:44:40.443Z,0.75
2023-11-19T04:47:46.604Z,0.68
2023-11-19T04:50:49.334Z,0.68
2023-11-19T04:53:52.443Z,0.70
2023-11-19T04:56:55.354Z,0.68
2023-11-19T04:59:58.371Z,0.63
2023-11-19T05:03:01.224Z,0.72
2023-11-19T05:06:04.683Z,0.71
2023-11-19T05:09:10.316Z,0.72
2023-11-19T05:12:13.730Z,0.72
2023-11-19T05:15:16.410Z,0.74
2023-11-19T05:18:19.611Z,0.75
2023-11-19T05:21:22.297Z,0.74
2023-11-19T05:24:25.311Z,0.76
2023-11-19T05:27:28.242Z,0.62
2023-11-19T05:30:31.215Z,0.61
2023-11-19T05:33:33.986Z,0.63
2023-11-19T05:36:37.056Z,0.68
2023-11-19T05:39:40.252Z,0.37
2023-11-19T05:42:43.328Z,0.67
2023-11-19T05:45:45.999Z,0.65
2023-11-19T05:48:49.478Z,0.66
2023-11-19T05:51:52.486Z,0.65
2023-11-19T05:54:55.443Z,0.73
2023-11-19T05:57:58.112Z,0.85
2023-11-19T06:01:02.385Z,0.88
2023-11-19T06:04:05.959Z,0.80
2023-11-19T06:07:08.905Z,0.79
2023-11-19T06:10:12.494Z,0.86
2023-11-19T06:13:16.726Z,0.94
2023-11-19T06:16:20.162Z,0.90
2023-11-19T06:19:23.041Z,0.70
2023-11-19T06:22:25.927Z,0.87
2023-11-19T06:25:29.313Z,0.76
2023-11-19T06:28:33.023Z,0.84
2023-11-19T06:31:35.718Z,0.75
2023-11-19T06:34:39.123Z,0.81
2023-11-19T06:37:43.030Z,0.82
2023-11-19T06:40:46.601Z,0.90
2023-11-19T06:43:50.023Z,0.92
2023-11-19T06:46:52.902Z,0.88
2023-11-19T06:49:56.351Z,0.86
2023-11-19T06:53:00.073Z,0.92
2023-11-19T06:56:07.431Z,0.91
2023-11-19T06:59:10.658Z,1.03
2023-11-19T07:02:13.646Z,1.08
2023-11-19T07:05:16.807Z,1.17
2023-11-19T07:08:19.631Z,1.23
2023-11-19T07:11:22.986Z,1.34
2023-11-19T07:14:25.797Z,1.36
2023-11-19T07:17:28.816Z,1.54
2023-11-19T07:20:32.480Z,1.61
2023-11-19T07:23:35.571Z,1.65
2023-11-19T07:26:43.651Z,1.71
2023-11-19T07:29:47.385Z,1.87
2023-11-19T07:32:50.089Z,1.80
2023-11-19T07:35:53.060Z,1.65
2023-11-19T07:38:58.631Z,1.81
2023-11-19T07:42:01.571Z,1.89
2023-11-19T07:45:04.656Z,1.93
2023-11-19T07:48:07.942Z,1.91
2023-11-19T07:51:12.844Z,2.01
2023-11-19T07:54:15.764Z,2.04
2023-11-19T07:57:18.558Z,2.13
2023-11-19T08:00:21.551Z,2.15
2023-11-19T08:03:24.980Z,2.15
2023-11-19T08:06:28.088Z,2.21
2023-11-19T08:09:31.124Z,2.19
2023-11-19T08:12:36.415Z,2.22
2023-11-19T08:15:39.616Z,2.25
2023-11-19T08:18:45.534Z,2.16
2023-11-19T08:21:48.569Z,2.35
2023-11-19T08:24:51.474Z,2.36
2023-11-19T08:27:54.367Z,2.37
2023-11-19T08:30:57.092Z,2.40
2023-11-19T08:33:59.930Z,2.37
2023-11-19T08:37:02.702Z,2.44
2023-11-19T08:40:06.263Z,2.42
2023-11-19T08:43:09.053Z,2.52
2023-11-19T08:46:12.953Z,2.50
2023-11-19T08:49:15.877Z,2.55
2023-11-19T08:52:19.078Z,2.65
2023-11-19T08:55:21.864Z,2.60
2023-11-19T08:58:25.030Z,2.65
2023-11-19T09:01:27.826Z,2.65
2023-11-19T09:04:30.961Z,2.74
2023-11-19T09:07:34.025Z,2.69
2023-11-19T09:10:37.092Z,2.72
2023-11-19T09:13:39.673Z,2.78
2023-11-19T09:16:42.679Z,2.90
2023-11-19T09:19:45.613Z,2.87
2023-11-19T09:22:48.584Z,2.92
2023-11-19T09:25:51.345Z,2.92
2023-11-19T09:28:54.315Z,2.95
2023-11-19T09:31:57.027Z,2.97
2023-11-19T09:35:00.172Z,3.00
2023-11-19T09:38:05.154Z,2.98
2023-11-19T09:41:10.028Z,2.98
2023-11-19T09:44:13.244Z,3.04
2023-11-19T09:47:18.447Z,3.06
2023-11-19T09:50:21.314Z,3.09
2023-11-19T09:53:24.893Z,3.15
2023-11-19T09:56:29.176Z,3.11
2023-11-19T09:59:33.223Z,3.12
2023-11-19T10:02:39.086Z,3.07
2023-11-19T10:05:42.552Z,2.99
2023-11-19T10:08:45.962Z,3.06
2023-11-19T10:11:52.406Z,3.13
2023-11-19T10:14:58.000Z,3.13
2023-11-19T10:18:01.297Z,3.13
2023-11-19T10:21:04.728Z,3.15
2023-11-19T10:24:09.228Z,3.16
2023-11-19T10:27:12.336Z,3.17
2023-11-19T10:30:22.138Z,3.23
2023-11-19T10:33:24.773Z,3.19
2023-11-19T10:36:44.836Z,3.17
2023-11-19T10:39:57.523Z,3.27
2023-11-19T10:43:04.794Z,3.30
2023-11-19T10:46:12.015Z,3.25
2023-11-19T10:49:15.070Z,3.24
2023-11-19T10:52:21.626Z,3.15
2023-11-19T10:55:28.610Z,3.21
2023-11-19T10:58:33.716Z,3.25
2023-11-19T11:01:43.400Z,3.27
2023-11-19T11:04:48.803Z,3.34
2023-11-19T11:07:53.708Z,3.36
2023-11-19T11:10:58.236Z,3.31
2023-11-19T11:14:03.296Z,3.30
2023-11-19T11:17:09.056Z,3.35
2023-11-19T11:20:12.502Z,3.33
2023-11-19T11:23:33.907Z,3.15
2023-11-19T11:27:05.492Z,3.17
2023-11-19T11:30:35.764Z,3.17
2023-11-19T11:34:11.443Z,3.18
2023-11-19T11:37:25.000Z,3.05
2023-11-19T11:40:27.990Z,3.18
2023-11-19T11:43:49.682Z,3.07
2023-11-19T11:46:56.270Z,3.21
2023-11-19T11:50:08.098Z,3.23
2023-11-19T11:53:18.592Z,3.24
2023-11-19T11:56:21.276Z,3.29
2023-11-19T11:59:25.181Z,3.35
2023-11-19T12:02:28.114Z,3.25
2023-11-19T12:05:31.852Z,3.26
2023-11-19T12:12:29.524Z,3.25
2023-11-19T12:15:32.494Z,3.32
2023-11-19T12:18:36.261Z,3.30
2023-11-19T12:21:39.394Z,3.36
2023-11-19T12:24:42.498Z,3.39
2023-11-19T12:27:47.449Z,3.55
2023-11-19T12:30:50.751Z,3.65
2023-11-19T12:33:54.236Z,3.69
2023-11-19T12:36:57.723Z,3.79
2023-11-19T12:40:00.723Z,3.84
2023-11-19T12:43:04.060Z,3.79
2023-11-19T12:46:25.357Z,3.88
2023-11-19T12:49:28.756Z,3.90
2023-11-19T12:52:31.954Z,3.94
2023-11-19T12:55:35.050Z,3.91
2023-11-19T12:58:38.020Z,3.91
2023-11-19T13:01:42.663Z,3.87
2023-11-19T13:04:45.418Z,3.85
2023-11-19T13:07:48.461Z,3.81
2023-11-19T13:10:52.001Z,3.70
2023-11-19T13:14:00.668Z,3.67
2023-11-19T13:17:03.666Z,3.59
2023-11-19T13:20:08.273Z,3.53
2023-11-19T13:23:16.613Z,3.54
2023-11-19T13:26:20.330Z,3.54
2023-11-19T13:29:23.045Z,3.54
2023-11-19T13:32:26.234Z,3.65
2023-11-19T13:35:29.374Z,3.61
2023-11-19T13:38:33.919Z,3.59
2023-11-19T13:41:36.819Z,3.54
2023-11-19T13:44:39.909Z,3.46
2023-11-19T13:47:44.185Z,3.53
2023-11-19T13:50:47.237Z,3.57
2023-11-19T13:53:52.577Z,3.48
2023-11-19T13:56:59.509Z,3.56
2023-11-19T14:00:12.241Z,3.61
2023-11-19T14:03:15.500Z,3.59
2023-11-19T14:06:18.554Z,3.61
2023-11-19T14:09:22.282Z,3.59
2023-11-19T14:12:25.021Z,3.58
2023-11-19T14:15:28.235Z,3.61
2023-11-19T14:18:31.168Z,3.54
2023-11-19T14:21:34.253Z,3.58
2023-11-19T14:24:37.135Z,3.59
2023-11-19T14:27:41.497Z,3.51
2023-11-19T14:30:46.134Z,3.57
2023-11-19T14:33:50.627Z,3.56
2023-11-19T14:36:55.072Z,3.52
2023-11-19T14:39:58.984Z,3.47
2023-11-19T14:43:01.998Z,3.43
2023-11-19T14:46:05.731Z,3.46
2023-11-19T14:49:09.075Z,3.40
2023-11-19T14:55:17.921Z,3.43
2023-11-19T14:58:20.867Z,3.42
2023-11-19T15:01:23.815Z,3.48
2023-11-19T15:04:27.099Z,3.42
2023-11-19T15:07:30.118Z,3.48
2023-11-19T15:10:33.001Z,3.46
2023-11-19T15:13:38.734Z,3.46
2023-11-19T15:16:42.321Z,3.38
2023-11-19T15:19:47.061Z,3.46
2023-11-19T15:22:50.898Z,3.49
2023-11-19T15:25:53.771Z,3.50
2023-11-19T15:28:58.905Z,3.51
2023-11-19T15:32:02.135Z,3.52
2023-11-19T15:35:05.641Z,3.55
2023-11-19T15:38:10.796Z,3.58
2023-11-19T15:41:14.112Z,3.60
2023-11-19T15:44:18.562Z,3.64
2023-11-19T15:47:22.600Z,3.59
2023-11-19T15:50:25.501Z,3.56
2023-11-19T15:53:28.893Z,3.54
2023-11-19T15:56:32.226Z,3.46
2023-11-19T15:59:35.336Z,3.48
2023-11-19T16:02:38.502Z,3.52
2023-11-19T16:05:42.228Z,3.56
2023-11-19T16:08:45.355Z,3.55
2023-11-19T16:11:54.547Z,3.58
2023-11-19T16:14:59.341Z,3.63
2023-11-19T16:18:02.560Z,3.67
2023-11-19T16:21:05.875Z,3.69
2023-11-19T16:24:10.236Z,3.70
2023-11-19T16:30:21.769Z,3.74
2023-11-19T16:33:30.702Z,3.75
2023-11-19T16:36:35.120Z,3.68
2023-11-19T16:39:37.825Z,3.67
2023-11-19T16:42:41.677Z,5.33
2023-11-19T16:45:44.389Z,4.97
2023-11-19T16:48:49.414Z,4.52
2023-11-19T16:51:52.576Z,4.33
2023-11-19T16:54:58.914Z,4.13
2023-11-19T16:58:03.300Z,3.92
2023-11-19T17:01:06.764Z,3.85
2023-11-19T17:04:10.878Z,3.78
2023-11-19T17:07:13.884Z,3.76
2023-11-19T17:10:16.682Z,3.73
2023-11-19T17:13:23.109Z,3.69
2023-11-19T17:16:27.540Z,3.68
2023-11-19T17:19:30.664Z,3.64
2023-11-19T17:22:37.529Z,3.64
2023-11-19T17:25:42.235Z,3.56
2023-11-19T17:28:45.489Z,3.50
2023-11-19T17:31:48.770Z,3.42
2023-11-19T17:34:52.192Z,3.36
2023-11-19T17:37:56.114Z,3.29
2023-11-19T17:40:59.065Z,3.24
2023-11-19T17:44:02.419Z,3.21
2023-11-19T17:47:05.805Z,3.19
2023-11-19T17:53:16.194Z,3.20
2023-11-19T17:56:19.555Z,3.18
2023-11-19T17:59:25.935Z,3.27
2023-11-19T18:05:36.088Z,3.35
2023-11-19T18:08:39.475Z,3.47
2023-11-19T18:11:42.908Z,3.46
2023-11-19T18:17:52.116Z,4.96
2023-11-19T18:20:55.423Z,4.66
2023-11-19T18:23:58.250Z,4.46
2023-11-19T18:27:01.981Z,4.23
2023-11-19T18:30:11.659Z,4.08
2023-11-19T18:33:16.817Z,3.96
2023-11-19T18:36:20.074Z,3.87
2023-11-19T18:39:23.262Z,3.90
2023-11-19T18:42:27.028Z,3.88
2023-11-19T18:45:30.069Z,3.89
2023-11-19T18:48:33.701Z,3.84
2023-11-19T18:51:37.051Z,3.82
2023-11-19T18:54:41.452Z,3.76
2023-11-19T18:57:44.991Z,3.51
2023-11-19T19:00:48.575Z,3.59
2023-11-19T19:03:51.898Z,3.62
2023-11-19T19:06:55.238Z,3.60
2023-11-19T19:09:58.861Z,3.41
2023-11-19T19:13:03.625Z,5.13
2023-11-19T19:16:08.816Z,4.93
2023-11-19T19:19:12.153Z,4.35
2023-11-19T19:22:15.037Z,4.11
2023-11-19T19:25:18.149Z,3.97
2023-11-19T19:28:22.992Z,3.91
2023-11-19T19:31:28.399Z,3.85
2023-11-19T19:34:31.456Z,3.83
2023-11-19T19:37:35.411Z,3.66
2023-11-19T19:40:38.274Z,3.73
2023-11-19T19:43:41.735Z,3.71
2023-11-19T19:46:46.946Z,3.68
2023-11-19T19:49:51.280Z,3.65
2023-11-19T19:52:56.384Z,3.56
2023-11-19T19:56:00.549Z,3.49
2023-11-19T19:59:04.671Z,3.38
2023-11-19T20:02:08.277Z,3.41
2023-11-19T20:05:14.881Z,3.36
2023-11-19T20:08:17.720Z,3.34
2023-11-19T20:11:21.153Z,3.29
2023-11-19T20:14:26.146Z,3.30
2023-11-19T20:17:29.706Z,3.33
2023-11-19T20:20:34.115Z,3.32
2023-11-19T20:23:37.440Z,3.29
2023-11-19T20:26:41.831Z,3.28
2023-11-19T20:29:48.249Z,3.33
2023-11-19T20:32:50.802Z,3.35
2023-11-19T20:35:56.496Z,3.39
2023-11-19T20:38:59.146Z,3.43
2023-11-19T20:42:05.614Z,3.48
2023-11-19T20:45:12.965Z,3.46
2023-11-19T20:48:16.129Z,3.50
2023-11-19T20:51:23.051Z,3.54
2023-11-19T20:57:34.527Z,3.48
2023-11-19T21:00:38.519Z,3.55
2023-11-19T21:03:41.343Z,3.53
2023-11-19T21:09:53.986Z,3.43
2023-11-19T21:12:56.950Z,3.41
2023-11-19T21:16:02.308Z,3.07
2023-11-19T21:19:05.602Z,3.44
2023-11-19T21:22:08.752Z,3.45
2023-11-19T21:25:14.674Z,3.46
2023-11-19T21:28:17.319Z,3.42
2023-11-19T21:31:20.419Z,3.47
2023-11-19T21:34:24.471Z,3.52
2023-11-19T21:37:28.384Z,3.45
2023-11-19T21:40:31.130Z,3.43
2023-11-19T21:43:34.510Z,3.55
2023-11-19T21:46:37.112Z,3.58
2023-11-19T21:49:42.221Z,3.56
2023-11-19T21:52:44.862Z,3.54
2023-11-19T21:55:47.957Z,3.57
2023-11-19T21:58:50.553Z,3.59
2023-11-19T22:01:54.000Z,3.61
2023-11-19T22:04:57.003Z,3.62
2023-11-19T22:08:18.151Z,3.58
2023-11-19T22:11:25.128Z,3.59
2023-11-19T22:14:28.718Z,3.53
2023-11-19T22:17:35.905Z,3.57
2023-11-19T22:20:39.103Z,3.57
2023-11-19T22:23:42.238Z,3.58
2023-11-19T22:26:44.813Z,3.60
2023-11-19T22:29:47.759Z,3.59
2023-11-19T22:32:50.793Z,3.62
2023-11-19T22:35:53.696Z,3.61
2023-11-19T22:38:57.657Z,3.62
2023-11-19T22:42:00.656Z,3.67
2023-11-19T22:45:03.796Z,3.65
2023-11-19T22:48:06.932Z,3.65
2023-11-19T22:51:10.021Z,3.60
2023-11-19T22:54:13.441Z,3.57
2023-11-19T22:57:16.085Z,3.57
2023-11-19T23:00:28.867Z,3.52
2023-11-19T23:03:33.451Z,3.35
2023-11-19T23:06:36.410Z,3.33
2023-11-19T23:09:42.152Z,3.29
2023-11-19T23:12:46.054Z,3.30
2023-11-19T23:15:48.903Z,3.30
2023-11-19T23:18:55.820Z,3.36
2023-11-19T23:21:58.807Z,3.41
2023-11-19T23:25:01.747Z,3.45
2023-11-19T23:28:05.818Z,3.47
2023-11-19T23:31:10.818Z,3.48
2023-11-19T23:34:13.458Z,3.48
2023-11-19T23:37:16.738Z,3.49
2023-11-19T23:40:19.905Z,3.48
2023-11-19T23:43:23.044Z,3.49
2023-11-19T23:46:25.832Z,3.46
2023-11-19T23:49:32.205Z,3.45
2023-11-19T23:52:34.918Z,3.46
2023-11-19T23:55:37.879Z,3.40
2023-11-19T23:58:40.845Z,3.37
